Terminal Aerodrome Forecast
Issued by NWS Wakefield, VA

Home | Current Version | Previous Version | Text Only | Print | Product List | Glossary On
Versions: 1 2 3 4 5 6 7 8 9 10 11 12 13 14 15 16 17 18
309
FTUS41 KAKQ 292320
TAFSBY
TAF
KSBY 292320Z 3000/3024 36008KT P6SM SKC
     FM301100 05006KT P6SM SCT200
     FM302000 11006KT P6SM BKN100=

USA.gov is the U.S. government's official web portal to all federal, state and local government web resources and services.